createdAt,value
2023-04-22T00:00:27.616Z,70.62
2023-04-22T00:01:27.579Z,71.12
2023-04-22T00:02:27.664Z,70.72
2023-04-22T00:03:27.848Z,70.95
2023-04-22T00:04:27.700Z,71.36
2023-04-22T00:05:27.681Z,71.97
2023-04-22T00:06:27.535Z,72.41
2023-04-22T00:07:27.511Z,72.31
2023-04-22T00:08:27.496Z,72.31
2023-04-22T00:09:27.489Z,71.94
2023-04-22T00:10:27.477Z,72.41
2023-04-22T00:11:27.488Z,73.06
2023-04-22T00:12:27.454Z,72.92
2023-04-22T00:13:27.445Z,72.96
2023-04-22T00:14:27.435Z,72.86
2023-04-22T00:15:27.426Z,72.86
2023-04-22T00:16:27.464Z,72.86
2023-04-22T00:17:27.438Z,72.96
2023-04-22T00:18:27.398Z,72.65
2023-04-22T00:19:27.370Z,73.16
2023-04-22T00:20:27.366Z,73.19
2023-04-22T00:21:27.445Z,74.01
2023-04-22T00:22:27.340Z,73.94
2023-04-22T00:23:27.341Z,74.96
2023-04-22T00:24:27.313Z,74.86
2023-04-22T00:25:27.305Z,75.68
2023-04-22T00:26:27.304Z,75.78
2023-04-22T00:27:27.283Z,74.76
2023-04-22T00:28:27.271Z,75.68
2023-04-22T00:29:27.258Z,75.61
2023-04-22T00:30:27.250Z,75.41
2023-04-22T00:31:27.294Z,76.02
2023-04-22T00:32:27.251Z,76.16
2023-04-22T00:33:27.216Z,76.36
2023-04-22T00:34:27.195Z,76.84
2023-04-22T00:35:27.186Z,76.26
2023-04-22T00:36:27.195Z,75.92
2023-04-22T00:37:27.188Z,76.02
2023-04-22T00:38:27.172Z,76.43
2023-04-22T00:39:27.189Z,75.75
2023-04-22T00:40:27.133Z,76.26
2023-04-22T00:41:27.131Z,76.97
2023-04-22T00:42:27.109Z,76.87
2023-04-22T00:43:27.096Z,76.97
2023-04-22T00:44:27.084Z,76.87
2023-04-22T00:45:27.087Z,76.26
2023-04-22T00:46:27.119Z,76.46
2023-04-22T00:47:27.208Z,76.67
2023-04-22T00:48:28.902Z,76.46
2023-04-22T00:49:27.026Z,77.11
2023-04-22T00:50:27.028Z,78.23
2023-04-22T00:51:27.031Z,78.34
2023-04-22T00:52:26.990Z,78.88
2023-04-22T00:53:27.000Z,78.68
2023-04-22T00:54:26.975Z,78.17
2023-04-22T00:55:26.969Z,78.68
2023-04-22T00:56:26.961Z,78.58
2023-04-22T00:57:26.936Z,79.43
2023-04-22T00:58:26.925Z,79.80
2023-04-22T00:59:26.912Z,79.80
2023-04-22T01:00:26.998Z,79.50
2023-04-22T01:01:27.074Z,80.15
2023-04-22T01:02:27.016Z,80.25
2023-04-22T01:03:27.049Z,80.97
2023-04-22T01:04:26.915Z,80.90
2023-04-22T01:05:26.854Z,80.69
2023-04-22T01:06:26.871Z,80.80
2023-04-22T01:07:26.824Z,81.01
2023-04-22T01:08:26.811Z,80.53
2023-04-22T01:09:26.827Z,80.94
2023-04-22T01:10:26.798Z,81.24
2023-04-22T01:11:26.803Z,81.65
2023-04-22T01:12:26.768Z,81.76
2023-04-22T01:13:26.766Z,82.17
2023-04-22T01:14:26.768Z,82.17
2023-04-22T01:15:26.742Z,82.92
2023-04-22T01:16:26.764Z,82.92
2023-04-22T01:17:26.762Z,82.62
2023-04-22T01:18:26.709Z,82.57
2023-04-22T01:19:26.693Z,82.98
2023-04-22T01:20:26.721Z,82.62
2023-04-22T01:21:27.205Z,83.03
2023-04-22T01:22:26.663Z,82.71
2023-04-22T01:23:26.645Z,82.62
2023-04-22T01:24:26.636Z,82.71
2023-04-22T01:25:26.641Z,83.78
2023-04-22T01:26:26.629Z,84.19
2023-04-22T01:27:26.601Z,84.19
2023-04-22T01:28:26.657Z,83.98
2023-04-22T01:29:26.584Z,84.19
2023-04-22T01:30:26.576Z,83.98
2023-04-22T01:31:26.585Z,84.15
2023-04-22T01:32:26.726Z,84.46
2023-04-22T01:33:26.565Z,84.15
2023-04-22T01:34:26.527Z,83.98
2023-04-22T01:35:26.527Z,84.15
2023-04-22T01:36:26.515Z,84.29
2023-04-22T01:37:26.495Z,84.50
2023-04-22T01:38:26.483Z,84.39
2023-04-22T01:39:26.471Z,84.29
2023-04-22T01:40:26.458Z,84.50
2023-04-22T01:41:26.471Z,84.39
2023-04-22T01:42:26.439Z,84.29
2023-04-22T01:43:26.421Z,84.19
2023-04-22T01:44:26.430Z,84.60
2023-04-22T01:45:26.399Z,84.50
2023-04-22T01:46:26.546Z,84.50
2023-04-22T01:47:26.382Z,84.09
2023-04-22T01:48:26.376Z,84.19
2023-04-22T01:49:26.353Z,84.19
2023-04-22T01:50:26.353Z,83.98
2023-04-22T01:51:26.351Z,84.33
2023-04-22T01:52:26.325Z,84.53
2023-04-22T01:53:26.310Z,84.64
2023-04-22T01:54:26.300Z,84.95
2023-04-22T01:55:26.292Z,84.99
2023-04-22T01:56:26.302Z,85.39
2023-04-22T01:57:26.309Z,85.46
2023-04-22T01:58:26.254Z,85.19
2023-04-22T01:59:26.241Z,85.39
2023-04-22T02:00:26.246Z,85.39
2023-04-22T02:01:26.312Z,86.22
2023-04-22T02:02:26.295Z,86.22
2023-04-22T02:03:26.353Z,86.32
2023-04-22T02:04:26.231Z,86.46
2023-04-22T02:05:26.166Z,86.63
2023-04-22T02:06:26.176Z,86.15
2023-04-22T02:07:26.148Z,86.15
2023-04-22T02:08:26.141Z,86.57
2023-04-22T02:09:26.124Z,86.25
2023-04-22T02:10:26.117Z,86.05
2023-04-22T02:11:26.112Z,86.40
2023-04-22T02:12:26.096Z,86.50
2023-04-22T02:13:26.101Z,86.50
2023-04-22T02:14:26.068Z,86.60
2023-04-22T02:15:26.059Z,86.50
2023-04-22T02:16:26.089Z,86.77
2023-04-22T02:17:26.034Z,86.81
2023-04-22T02:18:26.035Z,87.12
2023-04-22T02:19:26.061Z,86.91
2023-04-22T02:20:25.995Z,86.77
2023-04-22T02:21:25.995Z,86.77
2023-04-22T02:22:25.972Z,86.81
2023-04-22T02:23:25.984Z,86.98
2023-04-22T02:24:25.961Z,87.22
2023-04-22T02:25:25.942Z,87.53
2023-04-22T02:26:25.972Z,87.73
2023-04-22T02:27:25.923Z,87.38
2023-04-22T02:28:25.909Z,87.63
2023-04-22T02:29:25.919Z,87.70
2023-04-22T02:30:25.902Z,87.70
2023-04-22T02:31:25.972Z,87.63
2023-04-22T02:32:25.916Z,87.84
2023-04-22T02:33:25.855Z,88.04
2023-04-22T02:34:25.840Z,88.21
2023-04-22T02:35:25.825Z,88.00
2023-04-22T02:36:25.833Z,87.53
2023-04-22T02:37:25.799Z,87.43
2023-04-22T02:38:25.800Z,88.14
2023-04-22T02:39:25.797Z,87.73
2023-04-22T02:40:25.775Z,88.56
2023-04-22T02:41:25.770Z,87.94
2023-04-22T02:42:25.747Z,88.14
2023-04-22T02:43:25.740Z,88.14
2023-04-22T02:44:25.722Z,88.86
2023-04-22T02:45:25.759Z,88.86
2023-04-22T02:46:25.782Z,88.45
2023-04-22T02:47:25.723Z,88.56
2023-04-22T02:48:25.675Z,88.24
2023-04-22T02:49:25.679Z,87.94
2023-04-22T02:50:25.655Z,87.90
2023-04-22T02:51:25.668Z,87.49
2023-04-22T02:52:25.631Z,88.10
2023-04-22T02:53:25.616Z,87.70
2023-04-22T02:54:25.612Z,86.93
2023-04-22T02:55:25.593Z,87.24
2023-04-22T02:56:25.596Z,86.52
2023-04-22T02:57:25.572Z,86.22
2023-04-22T02:58:25.565Z,86.32
2023-04-22T02:59:25.567Z,86.22
2023-04-22T03:00:25.534Z,86.32
2023-04-22T03:01:25.642Z,86.36
2023-04-22T03:02:25.657Z,86.42
2023-04-22T03:03:25.615Z,86.22
2023-04-22T03:04:25.812Z,86.01
2023-04-22T03:05:25.492Z,86.22
2023-04-22T03:06:25.495Z,86.01
2023-04-22T03:07:25.461Z,86.63
2023-04-22T03:08:25.442Z,86.32
2023-04-22T03:09:25.432Z,85.60
2023-04-22T03:10:25.433Z,86.42
2023-04-22T03:11:25.432Z,86.52
2023-04-22T03:12:25.420Z,86.42
2023-04-22T03:13:25.401Z,86.42
2023-04-22T03:14:25.379Z,86.11
2023-04-22T03:15:25.366Z,86.52
2023-04-22T03:16:25.430Z,86.42
2023-04-22T03:17:25.393Z,86.77
2023-04-22T03:18:25.334Z,86.52
2023-04-22T03:19:25.330Z,86.57
2023-04-22T03:20:25.311Z,87.18
2023-04-22T03:21:25.317Z,87.24
2023-04-22T03:22:25.297Z,86.93
2023-04-22T03:23:25.286Z,86.93
2023-04-22T03:24:25.269Z,86.42
2023-04-22T03:25:25.264Z,86.28
2023-04-22T03:26:25.263Z,85.87
2023-04-22T03:27:25.238Z,85.66
2023-04-22T03:28:25.279Z,85.46
2023-04-22T03:29:25.212Z,85.36
2023-04-22T03:30:25.214Z,85.05
2023-04-22T03:31:25.247Z,85.25
2023-04-22T03:32:25.206Z,85.46
2023-04-22T03:33:25.188Z,85.15
2023-04-22T03:34:25.154Z,84.91
2023-04-22T03:35:25.150Z,84.39
2023-04-22T03:36:25.153Z,84.19
2023-04-22T03:37:25.119Z,84.39
2023-04-22T03:38:25.112Z,83.95
2023-04-22T03:39:25.111Z,83.64
2023-04-22T03:40:25.087Z,83.68
2023-04-22T03:41:25.100Z,83.44
2023-04-22T03:42:25.063Z,83.64
2023-04-22T03:43:25.051Z,83.64
2023-04-22T03:44:25.046Z,83.84
2023-04-22T03:45:25.041Z,83.74
2023-04-22T03:46:25.082Z,83.13
2023-04-22T03:47:25.101Z,82.92
2023-04-22T03:48:24.996Z,82.82
2023-04-22T03:49:25.024Z,83.13
2023-04-22T03:50:24.976Z,83.74
2023-04-22T03:51:24.975Z,83.74
2023-04-22T03:52:24.978Z,83.03
2023-04-22T03:53:24.947Z,82.82
2023-04-22T03:54:24.933Z,82.82
2023-04-22T03:55:24.924Z,83.03
2023-04-22T03:56:24.906Z,83.03
2023-04-22T03:57:24.955Z,82.78
2023-04-22T03:58:24.886Z,82.82
2023-04-22T03:59:24.871Z,83.03
2023-04-22T04:00:24.861Z,83.13
2023-04-22T04:01:24.848Z,82.71
2023-04-22T04:02:24.994Z,83.74
2023-04-22T04:03:25.202Z,83.03
2023-04-22T04:04:25.222Z,82.98
2023-04-22T04:05:24.909Z,82.71
2023-04-22T04:06:24.801Z,83.84
2023-04-22T04:07:24.796Z,83.33
2023-04-22T04:08:24.774Z,83.60
2023-04-22T04:09:24.759Z,83.70
2023-04-22T04:10:24.754Z,83.64
2023-04-22T04:11:24.762Z,83.33
2023-04-22T04:12:24.752Z,83.13
2023-04-22T04:13:24.716Z,82.82
2023-04-22T04:14:24.722Z,82.92
2023-04-22T04:15:24.700Z,82.92
2023-04-22T04:16:24.752Z,83.23
2023-04-22T04:17:24.707Z,83.64
2023-04-22T04:18:24.662Z,82.92
2023-04-22T04:19:24.654Z,83.13
2023-04-22T04:20:24.636Z,83.03
2023-04-22T04:21:24.722Z,83.23
2023-04-22T04:22:24.653Z,82.92
2023-04-22T04:23:24.603Z,83.09
2023-04-22T04:24:24.595Z,82.89
2023-04-22T04:25:24.583Z,82.89
2023-04-22T04:26:24.579Z,82.89
2023-04-22T04:27:24.568Z,82.78
2023-04-22T04:28:24.547Z,82.54
2023-04-22T04:29:24.538Z,82.68
2023-04-22T04:30:24.528Z,82.75
2023-04-22T04:31:24.638Z,82.13
2023-04-22T04:32:24.567Z,82.03
2023-04-22T04:33:24.491Z,81.51
2023-04-22T04:34:24.489Z,81.72
2023-04-22T04:35:24.468Z,81.31
2023-04-22T04:36:24.453Z,82.23
2023-04-22T04:37:24.582Z,81.93
2023-04-22T04:38:24.436Z,81.93
2023-04-22T04:39:24.419Z,83.05
2023-04-22T04:40:24.407Z,82.75
2023-04-22T04:41:24.405Z,82.48
2023-04-22T04:42:24.410Z,82.57
2023-04-22T04:43:24.387Z,82.48
2023-04-22T04:44:24.365Z,82.48
2023-04-22T04:45:24.357Z,82.89
2023-04-22T04:46:24.394Z,82.98
2023-04-22T04:47:24.384Z,82.98
2023-04-22T04:48:24.326Z,83.64
2023-04-22T04:49:24.333Z,83.50
2023-04-22T04:50:24.317Z,84.22
2023-04-22T04:51:24.304Z,84.15
2023-04-22T04:52:24.297Z,84.11
2023-04-22T04:53:24.275Z,84.31
2023-04-22T04:54:24.258Z,84.31
2023-04-22T04:55:24.240Z,84.83
2023-04-22T04:56:24.248Z,84.42
2023-04-22T04:57:24.219Z,84.66
2023-04-22T04:58:24.209Z,84.77
2023-04-22T04:59:24.205Z,84.83
2023-04-22T05:00:24.191Z,84.52
2023-04-22T05:01:24.239Z,84.52
2023-04-22T05:02:24.380Z,84.72
2023-04-22T05:03:24.265Z,84.11
2023-04-22T05:04:24.296Z,84.07
2023-04-22T05:05:24.140Z,84.07
2023-04-22T05:06:24.128Z,84.17
2023-04-22T05:07:24.136Z,84.17
2023-04-22T05:08:24.090Z,83.87
2023-04-22T05:09:24.104Z,84.17
2023-04-22T05:10:24.084Z,84.17
2023-04-22T05:11:24.070Z,83.93
2023-04-22T05:12:24.097Z,84.24
2023-04-22T05:13:24.055Z,84.65
2023-04-22T05:14:24.037Z,84.44
2023-04-22T05:15:24.015Z,84.75
2023-04-22T05:16:24.060Z,84.85
2023-04-22T05:17:24.039Z,85.16
2023-04-22T05:18:23.983Z,85.22
2023-04-22T05:19:23.974Z,84.41
2023-04-22T05:20:23.977Z,84.20
2023-04-22T05:21:23.957Z,83.79
2023-04-22T05:22:23.964Z,84.30
2023-04-22T05:23:23.927Z,84.00
2023-04-22T05:24:23.936Z,84.50
2023-04-22T05:25:23.930Z,83.89
2023-04-22T05:26:23.893Z,83.95
2023-04-22T05:27:23.904Z,83.85
2023-04-22T05:28:23.877Z,84.36
2023-04-22T05:29:23.862Z,83.75
2023-04-22T05:30:23.856Z,83.44
2023-04-22T05:31:23.902Z,82.83
2023-04-22T05:32:23.934Z,83.44
2023-04-22T05:33:23.828Z,83.61
2023-04-22T05:34:23.803Z,83.20
2023-04-22T05:35:23.793Z,83.51
2023-04-22T05:36:23.781Z,82.69
2023-04-22T05:37:23.969Z,82.39
2023-04-22T05:38:23.758Z,83.06
2023-04-22T05:39:23.751Z,83.98
2023-04-22T05:40:23.739Z,84.08
2023-04-22T05:41:23.741Z,82.65
2023-04-22T05:42:23.741Z,82.24
2023-04-22T05:43:23.704Z,82.24
2023-04-22T05:44:23.697Z,82.24
2023-04-22T05:45:23.682Z,82.31
2023-04-22T05:46:23.775Z,82.61
2023-04-22T05:47:23.725Z,82.82
2023-04-22T05:48:23.646Z,82.92
2023-04-22T05:49:23.632Z,81.80
2023-04-22T05:50:23.622Z,81.09
2023-04-22T05:51:23.628Z,80.98
2023-04-22T05:52:23.623Z,80.98
2023-04-22T05:53:23.588Z,81.15
2023-04-22T05:54:23.574Z,81.11
2023-04-22T05:55:23.570Z,80.77
2023-04-22T05:56:23.559Z,78.86
2023-04-22T05:57:23.574Z,75.43
2023-04-22T05:58:23.525Z,73.67
2023-04-22T05:59:23.520Z,73.90
2023-04-22T06:00:23.512Z,73.06
2023-04-22T06:01:23.507Z,73.29
2023-04-22T06:02:23.620Z,72.28
2023-04-22T06:03:23.647Z,72.38
2023-04-22T06:04:23.950Z,72.48
2023-04-22T06:05:23.599Z,71.73
2023-04-22T06:06:23.440Z,72.01
2023-04-22T06:07:23.459Z,71.00
2023-04-22T06:08:23.423Z,70.65
2023-04-22T06:09:23.412Z,69.24
2023-04-22T06:10:23.418Z,69.04
2023-04-22T06:11:23.393Z,68.63
2023-04-22T06:12:23.385Z,69.24
2023-04-22T06:13:23.373Z,66.33
2023-04-22T06:14:23.349Z,67.05
2023-04-22T06:15:23.337Z,66.44
2023-04-22T06:16:23.332Z,67.48
2023-04-22T06:17:23.357Z,66.67
2023-04-22T06:18:23.315Z,66.57
2023-04-22T06:19:23.292Z,68.09
2023-04-22T06:20:23.274Z,68.60
2023-04-22T06:21:23.266Z,68.63
2023-04-22T06:22:23.279Z,67.11
2023-04-22T06:23:23.263Z,66.70
2023-04-22T06:24:23.242Z,66.80
2023-04-22T06:25:23.229Z,67.61
2023-04-22T06:26:23.233Z,67.51
2023-04-22T06:27:23.234Z,66.88
2023-04-22T06:28:23.181Z,66.77
2023-04-22T06:29:23.197Z,66.94
2023-04-22T06:30:23.183Z,68.97
2023-04-22T06:31:23.168Z,66.54
2023-04-22T06:32:23.156Z,66.64
2023-04-22T06:33:23.130Z,67.05
2023-04-22T06:34:23.116Z,67.65
2023-04-22T06:35:23.129Z,67.96
2023-04-22T06:36:23.096Z,67.96
2023-04-22T06:37:23.100Z,66.84
2023-04-22T06:38:23.090Z,66.44
2023-04-22T06:39:23.064Z,65.53
2023-04-22T06:40:23.053Z,66.84
2023-04-22T06:41:23.039Z,66.00
2023-04-22T06:42:23.038Z,65.09
2023-04-22T06:43:23.021Z,64.76
2023-04-22T06:44:23.003Z,65.56
2023-04-22T06:45:23.117Z,66.17
2023-04-22T06:46:23.040Z,66.17
2023-04-22T06:47:23.009Z,66.47
2023-04-22T06:48:22.964Z,65.47
2023-04-22T06:49:22.957Z,64.96
2023-04-22T06:50:22.949Z,65.47
2023-04-22T06:51:22.942Z,64.42
2023-04-22T06:52:24.083Z,64.93
2023-04-22T06:53:22.898Z,64.83
2023-04-22T06:54:22.891Z,65.33
2023-04-22T06:55:22.883Z,64.32
2023-04-22T06:56:22.866Z,65.40
2023-04-22T06:57:22.873Z,65.00
2023-04-22T06:58:22.849Z,65.00
2023-04-22T06:59:22.836Z,65.10
2023-04-22T07:00:22.825Z,64.76
2023-04-22T07:01:22.872Z,64.67
2023-04-22T07:02:22.929Z,64.53
2023-04-22T07:03:23.006Z,64.87
2023-04-22T07:04:22.814Z,64.76
2023-04-22T07:05:22.768Z,65.95
2023-04-22T07:06:22.754Z,64.94
2023-04-22T07:07:22.768Z,63.96
2023-04-22T07:08:22.735Z,63.85
2023-04-22T07:09:22.717Z,63.42
2023-04-22T07:10:22.707Z,63.22
2023-04-22T07:11:22.707Z,63.93
2023-04-22T07:12:22.707Z,62.82
2023-04-22T07:13:22.681Z,64.10
2023-04-22T07:14:22.666Z,62.08
2023-04-22T07:15:22.652Z,62.59
2023-04-22T07:16:22.699Z,62.68
2023-04-22T07:17:22.858Z,62.59
2023-04-22T07:18:22.626Z,62.35
2023-04-22T07:19:22.611Z,63.06
2023-04-22T07:20:22.615Z,62.63
2023-04-22T07:21:22.586Z,62.83
2023-04-22T07:22:22.591Z,62.60
2023-04-22T07:23:22.561Z,62.22
2023-04-22T07:24:22.553Z,61.29
2023-04-22T07:25:22.547Z,60.65
2023-04-22T07:26:22.528Z,60.75
2023-04-22T07:27:22.530Z,61.43
2023-04-22T07:28:22.508Z,61.73
2023-04-22T07:29:22.495Z,61.13
2023-04-22T07:30:22.497Z,60.22
2023-04-22T07:31:22.489Z,61.13
2023-04-22T07:32:22.512Z,60.42
2023-04-22T07:33:22.464Z,60.42
2023-04-22T07:34:22.443Z,59.69
2023-04-22T07:35:22.426Z,59.79
2023-04-22T07:36:22.421Z,59.96
2023-04-22T07:37:22.419Z,60.06
2023-04-22T07:38:22.389Z,58.75
2023-04-22T07:39:22.375Z,58.95
2023-04-22T07:40:22.400Z,59.96
2023-04-22T07:41:22.363Z,61.24
2023-04-22T07:42:22.370Z,60.03
2023-04-22T07:43:22.332Z,60.13
2023-04-22T07:44:22.324Z,60.33
2023-04-22T07:45:22.312Z,60.91
2023-04-22T07:46:22.317Z,61.01
2023-04-22T07:47:22.334Z,58.42
2023-04-22T07:48:22.282Z,59.41
2023-04-22T07:49:22.283Z,61.31
2023-04-22T07:50:22.259Z,60.18
2023-04-22T07:51:22.247Z,59.00
2023-04-22T07:52:22.257Z,59.88
2023-04-22T07:53:22.231Z,60.15
2023-04-22T07:54:22.222Z,59.65
2023-04-22T07:55:22.196Z,59.82
2023-04-22T07:56:22.186Z,58.99
2023-04-22T07:57:22.227Z,58.59
2023-04-22T07:58:22.222Z,57.98
2023-04-22T07:59:22.152Z,55.80
2023-04-22T08:00:22.150Z,56.30
2023-04-22T08:01:22.171Z,58.31
2023-04-22T08:02:22.197Z,58.66
2023-04-22T08:03:22.281Z,58.66
2023-04-22T08:04:22.400Z,55.28
2023-04-22T08:05:22.185Z,57.26
2023-04-22T08:06:22.082Z,57.56
2023-04-22T08:08:22.056Z,57.13
2023-04-22T08:09:22.046Z,55.63
2023-04-22T08:10:22.037Z,55.50
2023-04-22T08:11:22.036Z,56.60
2023-04-22T08:12:22.029Z,55.40
2023-04-22T08:13:22.020Z,54.82
2023-04-22T08:14:22.001Z,55.65
2023-04-22T08:15:21.988Z,55.85
2023-04-22T08:16:22.042Z,55.05
2023-04-22T08:17:22.171Z,55.75
2023-04-22T08:18:21.948Z,54.75
2023-04-22T08:19:21.960Z,56.76
2023-04-22T08:20:21.980Z,57.33
2023-04-22T08:21:21.935Z,56.00
2023-04-22T08:22:21.917Z,54.39
2023-04-22T08:23:21.902Z,55.47
2023-04-22T08:24:21.896Z,56.05
2023-04-22T08:25:21.891Z,55.24
2023-04-22T08:26:21.857Z,53.44
2023-04-22T08:27:21.890Z,53.24
2023-04-22T08:28:21.841Z,55.05
2023-04-22T08:29:21.824Z,55.07
2023-04-22T08:30:21.899Z,55.15
2023-04-22T08:31:21.816Z,55.47
2023-04-22T08:32:21.860Z,54.77
2023-04-22T08:33:21.793Z,55.24
2023-04-22T08:34:21.792Z,55.42
2023-04-22T08:35:21.785Z,55.05
2023-04-22T08:36:21.763Z,54.85
2023-04-22T08:37:21.771Z,54.92
2023-04-22T08:38:21.727Z,54.99
2023-04-22T08:39:21.722Z,54.12
2023-04-22T08:40:21.734Z,54.49
2023-04-22T08:41:21.708Z,54.49
2023-04-22T08:42:21.963Z,54.90
2023-04-22T08:43:21.676Z,55.79
2023-04-22T08:44:21.664Z,54.99
2023-04-22T08:45:21.645Z,55.19
2023-04-22T08:46:21.656Z,53.30
2023-04-22T08:47:21.646Z,53.39
2023-04-22T08:48:57.547Z,54.72
2023-04-22T08:49:21.601Z,54.22
2023-04-22T08:50:21.585Z,55.42
2023-04-22T08:51:21.578Z,55.02
2023-04-22T08:52:21.693Z,54.64
2023-04-22T08:53:24.260Z,55.74
2023-04-22T08:54:21.544Z,54.57
2023-04-22T08:55:21.540Z,56.05
2023-04-22T08:56:21.519Z,55.35
2023-04-22T08:57:21.535Z,55.85
2023-04-22T08:58:21.498Z,54.82
2023-04-22T08:59:21.491Z,54.92
2023-04-22T09:00:21.581Z,54.92
2023-04-22T09:01:21.486Z,55.12
2023-04-22T09:02:21.488Z,54.90
2023-04-22T09:03:21.543Z,55.89
2023-04-22T09:04:21.617Z,53.09
2023-04-22T09:05:21.419Z,52.80
2023-04-22T09:06:21.406Z,53.97
2023-04-22T09:07:21.935Z,55.04
2023-04-22T09:08:21.380Z,55.41
2023-04-22T09:09:21.392Z,54.14
2023-04-22T09:10:21.365Z,53.31
2023-04-22T09:11:21.350Z,53.14
2023-04-22T09:12:21.357Z,54.52
2023-04-22T09:13:21.327Z,55.39
2023-04-22T09:14:21.322Z,52.89
2023-04-22T09:15:21.312Z,53.06
2023-04-22T09:16:21.329Z,54.36
2023-04-22T09:17:21.323Z,53.17
2023-04-22T09:18:21.277Z,53.86
2023-04-22T09:19:21.267Z,54.29
2023-04-22T09:20:21.248Z,54.57
2023-04-22T09:21:21.241Z,54.69
2023-04-22T09:22:21.244Z,52.97
2023-04-22T09:23:21.216Z,54.46
2023-04-22T09:24:21.218Z,52.94
2023-04-22T09:25:21.213Z,52.44
2023-04-22T09:26:21.187Z,51.54
2023-04-22T09:27:21.196Z,52.17
2023-04-22T09:28:21.226Z,53.04
2023-04-22T09:29:21.159Z,52.34
2023-04-22T09:30:21.144Z,51.92
2023-04-22T09:31:21.171Z,54.31
2023-04-22T09:32:21.147Z,50.67
2023-04-22T09:33:21.117Z,51.79
2023-04-22T09:34:21.112Z,52.89
2023-04-22T09:35:21.091Z,52.87
2023-04-22T09:36:21.076Z,53.96
2023-04-22T09:37:21.099Z,52.67
2023-04-22T09:38:21.051Z,53.04
2023-04-22T09:39:21.044Z,51.17
2023-04-22T09:40:21.028Z,51.67
2023-04-22T09:41:21.037Z,50.60
2023-04-22T09:42:21.016Z,51.59
2023-04-22T09:43:21.016Z,52.17
2023-04-22T09:44:20.983Z,52.74
2023-04-22T09:45:20.972Z,51.03
2023-04-22T09:46:21.165Z,52.62
2023-04-22T09:47:20.962Z,51.10
2023-04-22T09:48:20.937Z,52.39
2023-04-22T09:49:20.928Z,49.80
2023-04-22T09:50:20.911Z,52.69
2023-04-22T09:51:20.902Z,52.19
2023-04-22T09:52:20.907Z,50.10
2023-04-22T09:53:20.879Z,50.05
2023-04-22T09:54:20.871Z,51.95
2023-04-22T09:55:20.866Z,52.42
2023-04-22T09:56:20.852Z,51.52
2023-04-22T09:57:20.891Z,51.15
2023-04-22T09:58:20.844Z,51.54
2023-04-22T09:59:20.829Z,53.81
2023-04-22T10:00:20.812Z,52.39
2023-04-22T10:01:20.866Z,50.50
2023-04-22T10:02:20.868Z,49.68
2023-04-22T10:03:20.800Z,48.71
2023-04-22T10:04:20.788Z,50.00
2023-04-22T10:05:20.769Z,50.38
2023-04-22T10:06:20.746Z,49.28
2023-04-22T10:07:20.768Z,48.91
2023-04-22T10:08:20.723Z,48.43
2023-04-22T10:09:20.706Z,49.05
2023-04-22T10:10:20.695Z,48.65
2023-04-22T10:11:20.692Z,50.45
2023-04-22T10:12:29.469Z,50.85
2023-04-22T10:13:21.679Z,48.97
2023-04-22T10:14:20.677Z,49.77
2023-04-22T10:15:20.657Z,51.65
2023-04-22T10:16:20.639Z,50.62
2023-04-22T10:17:20.616Z,51.59
2023-04-22T10:18:20.614Z,52.17
2023-04-22T10:19:20.595Z,51.07
2023-04-22T10:20:20.584Z,50.30
2023-04-22T10:21:20.580Z,53.09
2023-04-22T10:22:20.557Z,51.84
2023-04-22T10:23:20.579Z,49.90
2023-04-22T10:24:20.541Z,49.21
2023-04-22T10:25:20.521Z,49.70
2023-04-22T10:26:20.514Z,49.88
2023-04-22T10:27:20.503Z,50.10
2023-04-22T10:28:20.514Z,50.27
2023-04-22T10:29:20.510Z,50.48
2023-04-22T10:30:20.482Z,49.76
2023-04-22T10:31:20.520Z,49.66
2023-04-22T10:32:20.516Z,48.36
2023-04-22T10:33:20.464Z,47.94
2023-04-22T10:34:20.429Z,49.13
2023-04-22T10:35:20.429Z,48.86
2023-04-22T10:36:20.403Z,50.73
2023-04-22T10:37:20.408Z,49.95
2023-04-22T10:38:20.393Z,48.16
2023-04-22T10:39:20.369Z,47.51
2023-04-22T10:40:20.385Z,49.70
2023-04-22T10:41:20.351Z,48.71
2023-04-22T10:42:20.333Z,49.40
2023-04-22T10:43:20.396Z,49.51
2023-04-22T10:44:20.372Z,49.70
2023-04-22T10:45:20.347Z,48.79
2023-04-22T10:46:20.318Z,48.98
2023-04-22T10:47:20.289Z,48.98
2023-04-22T10:48:20.318Z,49.48
2023-04-22T10:49:20.271Z,48.41
2023-04-22T10:50:20.268Z,47.81
2023-04-22T10:51:20.357Z,49.21
2023-04-22T10:52:20.272Z,49.48
2023-04-22T10:53:20.257Z,47.79
2023-04-22T10:54:20.221Z,48.58
2023-04-22T10:55:20.194Z,47.69
2023-04-22T10:56:20.195Z,49.95
2023-04-22T10:57:20.178Z,48.36
2023-04-22T10:58:20.173Z,48.83
2023-04-22T10:59:20.150Z,48.44
2023-04-22T11:00:20.163Z,50.31
2023-04-22T11:01:20.180Z,48.32
2023-04-22T11:02:20.135Z,46.83
2023-04-22T11:03:20.369Z,46.25
2023-04-22T11:04:20.311Z,49.41
2023-04-22T11:05:20.087Z,46.83
2023-04-22T11:06:20.080Z,45.83
2023-04-22T11:07:20.075Z,45.53
2023-04-22T11:08:20.069Z,47.13
2023-04-22T11:09:20.055Z,46.72
2023-04-22T11:10:20.081Z,46.13
2023-04-22T11:11:20.128Z,45.83
2023-04-22T11:12:20.046Z,46.83
2023-04-22T11:13:20.011Z,48.14
2023-04-22T11:14:19.992Z,46.62
2023-04-22T11:15:19.996Z,47.25
2023-04-22T11:16:21.050Z,46.15
2023-04-22T11:17:19.971Z,47.25
2023-04-22T11:18:19.966Z,47.37
2023-04-22T11:19:19.951Z,47.66
2023-04-22T11:20:19.926Z,47.66
2023-04-22T11:21:19.929Z,48.07
2023-04-22T11:22:19.901Z,47.07
2023-04-22T11:23:19.946Z,48.07
2023-04-22T11:24:19.881Z,46.65
2023-04-22T11:25:19.878Z,45.48
2023-04-22T11:26:19.858Z,46.57
2023-04-22T11:27:19.847Z,46.77
2023-04-22T11:28:21.522Z,45.78
2023-04-22T11:29:19.822Z,47.44
2023-04-22T11:30:19.820Z,46.84
2023-04-22T11:31:19.883Z,46.83
2023-04-22T11:32:19.795Z,46.62
2023-04-22T11:33:19.817Z,46.72
2023-04-22T11:34:19.774Z,45.45
2023-04-22T11:35:19.781Z,46.47
2023-04-22T11:36:19.752Z,46.65
2023-04-22T11:37:19.742Z,45.87
2023-04-22T11:38:19.739Z,46.27
2023-04-22T11:39:19.713Z,47.47
2023-04-22T11:40:28.875Z,46.27
2023-04-22T11:41:20.697Z,46.47
2023-04-22T11:42:19.687Z,47.54
2023-04-22T11:43:19.685Z,46.75
2023-04-22T11:44:19.666Z,46.92
2023-04-22T11:45:19.658Z,47.34
2023-04-22T11:46:21.144Z,45.85
2023-04-22T11:47:19.625Z,46.23
2023-04-22T11:48:19.630Z,47.42
2023-04-22T11:49:19.624Z,47.52
2023-04-22T11:50:19.597Z,43.46
2023-04-22T11:51:19.587Z,47.14
2023-04-22T11:52:20.269Z,45.26
2023-04-22T11:53:19.576Z,45.43
2023-04-22T11:54:19.556Z,46.33
2023-04-22T11:55:19.539Z,45.03
2023-04-22T11:56:19.528Z,45.23
2023-04-22T11:57:19.515Z,43.98
2023-04-22T11:58:19.519Z,46.84
2023-04-22T11:59:19.495Z,45.55
2023-04-22T12:00:19.485Z,44.96
2023-04-22T12:01:19.475Z,45.36
2023-04-22T12:02:19.632Z,45.26
2023-04-22T12:03:19.753Z,45.65
2023-04-22T12:04:19.552Z,45.33
2023-04-22T12:05:19.495Z,45.55
2023-04-22T12:06:19.418Z,46.62
2023-04-22T12:07:19.408Z,46.92
2023-04-22T12:08:19.414Z,44.93
2023-04-22T12:09:19.386Z,44.76
2023-04-22T12:10:19.380Z,44.56
2023-04-22T12:11:19.366Z,44.76
2023-04-22T12:12:19.350Z,45.06
2023-04-22T12:13:19.386Z,43.76
2023-04-22T12:14:19.331Z,43.88
2023-04-22T12:15:19.315Z,45.48
2023-04-22T12:16:19.806Z,45.48
2023-04-22T12:17:19.377Z,45.28
2023-04-22T12:18:19.294Z,45.40
2023-04-22T12:19:19.276Z,45.72
2023-04-22T12:20:19.261Z,46.81
2023-04-22T12:21:19.269Z,45.62
2023-04-22T12:22:19.244Z,43.75
2023-04-22T12:23:19.237Z,43.55
2023-04-22T12:24:19.234Z,43.43
2023-04-22T12:25:19.206Z,43.63
2023-04-22T12:26:19.205Z,43.82
2023-04-22T12:27:19.184Z,43.73
2023-04-22T12:28:19.190Z,43.45
2023-04-22T12:29:19.176Z,43.95
2023-04-22T12:30:19.155Z,45.64
2023-04-22T12:31:19.155Z,45.62
2023-04-22T12:32:19.140Z,43.63
2023-04-22T12:33:19.133Z,45.60
2023-04-22T12:34:19.112Z,46.20
2023-04-22T12:35:19.112Z,45.40
2023-04-22T12:36:19.093Z,45.37
2023-04-22T12:37:19.111Z,45.48
2023-04-22T12:38:19.080Z,44.98
2023-04-22T12:39:19.082Z,43.88
2023-04-22T12:40:19.044Z,44.88
2023-04-22T12:41:19.040Z,45.36
2023-04-22T12:42:19.025Z,44.96
2023-04-22T12:43:19.034Z,45.33
2023-04-22T12:44:19.010Z,45.53
2023-04-22T12:45:18.989Z,45.21
2023-04-22T12:46:19.016Z,45.49
2023-04-22T12:47:19.016Z,44.70
2023-04-22T12:48:19.127Z,44.20
2023-04-22T12:49:18.967Z,44.99
2023-04-22T12:50:18.937Z,45.07
2023-04-22T12:51:18.938Z,44.70
2023-04-22T12:52:18.935Z,42.80
2023-04-22T12:53:18.934Z,43.80